Orono, Minnesota
Current Conditions -  °F | °C
As of 6:53 AM on Saturday 20 Dec 2014 (Local Time) from KFCM Reporting Station
Haze Haze  
Wind Chill: 23°   Ceiling: 900
Heat Index: 30°   Visibility: 4mi
Dew Point: 27°   Wind: 7mph
Humidity: 88%   Direction: 180°S
Pressure: 30.14"   Gusts: NA
Location:  44.9534°N, 93.5762°W
Report Text: KFCM 201253Z 18006KT 4SM BR BKN009 OVC027 M01/M03 A3014 RMK AO2 SLP219 T10111028
Loading
Personal Weather Stations






























Interactive Weather Map New forecast layout! Learn more

10-Day Weather Forecast

Advertisements
Track Severe Weather on mobile